IVAO ES Tour IFR-A 2013 Etapa 30

IVAO ES Tour IFR-A 2013 Etapa 30

Menorca ( LEMH ) – Bilbao ( LEBB )

Datos generales del vuelo
Fecha 23-12-2013 Avión  B737-800 winglets
Ruta MEROS UN853 LAPIT BCN UM601 CEGAM Nivel de vuelo FL350
Origen LEMH Destino LEBB
Velocidad M0.790 Distancia 440Nm
Distancia real 381Nm ETE 01:10
ETA 15:40Z FOB 02:30
Hora salida 14:30Z Hora llegada 16:15Z
Pax 152 TOW 68652Kg
MTOW 78471Kg Fuel 6966Kg
Fuel utilizado 4955Kg ZFW 61685Kg
Peso carga 8394Kg Peso pasaje 11878Kg
V1 132Knots Vr 142Knots
V2 151Knots Vref 148Knots
 Velocidad vertical toma
409,23 ft/m  

 

Datos LEMH
Metar: LEMH 231400Z 28004KT 240V320 9999 SCT015 13/09 Q1025
Pista Activa: 19R
Salida: MEROS2D

Datos LEBB
Metar: LEBB 231530Z 17008KT 120V270 9999 FEW040 15/05 Q1016 WS ALL RWY NOSIG
Pista Activa: 30
Llegada: DCT SARRA ( ATC )
App: ILS Z 30

 

IVAO ES Tour IFR-A 2013 Etapa 29

IVAO ES Tour IFR-A 2013 Etapa 29

Madrid ( LEMD ) – mENORCA ( lemh )

Datos generales del vuelo
Fecha 19-12-2013 Avión  B737-800 winglets
Ruta NANDO UT257 MABUX UM871 LASPO UZ224 RONDU UN856 IZA UN851 PTC Nivel de vuelo FL340
Origen LEMD Destino LEMH
Velocidad M0.790 Distancia 430Nm
Distancia real 359Nm ETE 01:00
ETA 19:00Z FOB 02:30
Hora salida 18:05Z Hora llegada 19:20Z
Pax  152 TOW 68088Kg
MTOW  78471Kg Fuel 6971Kg
Fuel utilizado 3683Kg ZFW 61116Kg
Peso carga 8386Kg Peso pasaje 11317Kg
V1 131Knots Vr 141Knots
V2 150Knots Vref 148Knots
 Velocidad vertical toma
699,23 ft/m (Hard landing WS)  

 

Datos LEMD
Metar: LEMD 191730Z 28009KT 250V310 CAVOK 09/02 Q1012 R88/19//95 NOSIG
Pista Activa: 36L
Salida: NANDO2N

Datos LEMH
Metar: LEMH 191900Z 20010KT 180V240 5000 -RA SCT010 12/11 Q1013
Pista Activa: 19R
Llegada: PTC1F
App: ILS Y 19R

IVAO ES Tour IFR-A 2013 Etapa 28

IVAO ES Tour IFR-A 2013 Etapa 28

Gran Canaria ( GCLP ) – Madrid ( LEMD )

Datos generales del vuelo
Fecha 18-12-2013 Avión  B737-800 winglets
Ruta KORAL UG5 ESS UN871 VJF UN10 HIJ UZ230 SOTUK Nivel de vuelo FL380
Origen GCLP Destino LEMD
Velocidad M0.793 Distancia 1000Nm
Distancia real 951Nm ETE 02:30
ETA 19:10Z FOB 03:30
Hora salida 16:40Z Hora llegada 19:10Z
Pax 152 TOW 68240Kg
MTOW  78471Kg Fuel 10310Kg
Fuel utilizado 6874Kg ZFW 57929Kg
Peso carga 6018Kg Peso pasaje 10498Kg
V1 131Knots Vr 141Knots
V2 150Knots Vref 144Knots
 Velocidad vertical toma
118,5 ft/m  

 

Datos GCLP
Metar: GCLP 181600Z 02015KT 9999 FEW025 21/13 Q1028 NOSIG
Pista Activa: 03R
Salida: KORAL4A

Datos LEMD
Metar: LEMD 181830Z 17005KT 140V210 5000 BR FEW010 SCT050 BKN075 08/07 Q1024 NOSIG
Pista Activa: 32l
Llegada: SOTUK2C
App: ILS Z 32L

IVAO ES Tour IFR-A 2013 Etapa 27

IVAO ES Tour IFR-A 2013 Etapa 27

Badajoz ( LEBZ ) – Gran Canaria ( GCLP )

Datos generales del vuelo
Fecha 17-12-2013 Avión  B737-800 winglets
Ruta CLANA UN857 TERTO Nivel de vuelo FL370
Origen LEBZ Destino GCLP
Velocidad M0.797 Distancia 820Nm
Distancia real 784Nm ETE 02:00
ETA 21:00Z FOB 03:30
Hora salida 18:50Z Hora llegada 21:10Z
Pax  146 TOW 69083Kg
MTOW  78471Kg Fuel 9396Kg
Fuel utilizado 6101Kg ZFW 59686Kg
Peso carga 7382Kg Peso pasaje 10891Kg
V1 132Knots Vr 141Knots
V2 149Knots Vref 147Knots
 Velocidad vertical toma
50,0 ft/m  

 

Datos LEBZ
Metar: LEBZ 171800Z 15001KT 9999 FEW035 13/09 Q1026
Pista Activa: 31
Salida: VFR

Datos GCLP
Metar: GCLP 172030Z 02014KT 9999 FEW023 BKN032 19/13 Q1028 NOSIG
Pista Activa: 03
Llegada: TERTO4Z
App: ILS Z 03L transición LALTO

 

IVAO ES Tour IFR-A 2013 Etapa 26

IVAO ES Tour IFR-A 2013 Etapa 26

IBIZA ( LEIB ) – Badajoz ( LEBZ )

Datos generales del vuelo
Fecha 17-12-2013 Avión  B737-800 winglets
Ruta XOSTA UM134 VLC UN733 WALLY UQ900 CCS Nivel de vuelo FL360
Origen LEIB Destino LEBZ
Velocidad M0.793 Distancia 450Nm
Distancia real 382Nm ETE 01:05
ETA 10:35Z FOB 02:45
Hora salida 09:25Z Hora llegada 10:45Z
Pax  146 TOW 67595Kg
MTOW  78471Kg Fuel 7284Kg
Fuel utilizado 3909Kg ZFW 60310Kg
Peso carga 7877Kg Peso pasaje 11020Kg
V1 131Knots 141Vr Knots
V2 150Knots Vref 147Knots
 Velocidad vertical toma
170,00 ft/m  

 

Datos LEIB
Metar: LEIB 170900Z 08006KT 9999 FEW020 SCT030 16/12 Q1029 NOSIG
Pista Activa: 06
Salida: XOSTA1F

Datos LEBZ
Metar: LEBZ 171000Z 10003KT 9999 SCT035 10/07 Q1028
Pista Activa: 31
Llegada: CCS1A
App: ILS 31

IVAO ES Tour IFR-A 2013 Etapa 25

IVAO ES Tour IFR-A 2013 Etapa 25

Asturias ( LEAS ) – IBIZA ( LEIB )

Datos generales del vuelo
Fecha 16-12-2013 Avión  B737-800 winglets
Ruta AMAKA XARIS UM190 BLV UM601 BCN UZ174 CORDA Nivel de vuelo FL360
Origen LEAS Destino LEIB
Velocidad M0.793 Distancia 560Nm
Distancia real 436Nm ETE 01:20
ETA 10:40Z FOB 02:45
Hora salida 09:20Z Hora llegada 10:45Z
Pax 151 TOW 69427Kg
MTOW  78471Kg Fuel 7675Kg
Fuel utilizado 4259Kg ZFW 61750Kg
Peso carga 8477Kg Peso pasaje 11860Kg
V1 133Knots Vr 143Knots
V2 152Knots Vref 149Knots
 Velocidad vertical toma
95,4 ft/m  

 

Datos LEAS
Metar: LEAS 160900Z VRB01KT CAVOK 08/01 Q1024 NOSIG
Pista Activa: 11
Salida: AMAKA1E

Datos LEIB
Metar: LEIB 161000Z 00000KT 9999 FEW020 14/11 Q1033 NOSIG
Pista Activa: 24
Llegada: CORDA3N
App: ILS 24

IVAO ES Tour IFR-A 2013 Etapa 24

IVAO ES Tour IFR-A 2013 Etapa 24

Girona ( LEGE ) – Asturias ( LEAS )

Datos generales del vuelo
 Fecha 14-12-2013  Avión  B737-800 winglets
 Ruta MAMUK B31 SLL UT410 VIBOK UM601 BLV UM190 XARIS AMAKA  Nivel de vuelo FL310
 Origen LEGE  Destino LEAS
 Velocidad M0.780  Distancia 442Nm
 Distancia real 400Nm ETE 01:10
 ETA 10:40Z  FOB 02:35
 Hora salida 09:30Z Hora llegada 11:00Z
 Pax 145 TOW 67489Kg
 MTOW  78471Kg Fuel 7049Kg
 Fuel utilizado 3885Kg ZFW 60440Kg
Peso carga 8291Kg Peso pasaje 10736Kg
V1 131Knots Vr 141Knots
 V2 150Knots  Vref 147Knots
 Velocidad vertical toma
123,8 ft/m  

 

Datos LEGE
Metar: LEGE 140930Z VRB02KT CAVOK 08/06 Q1031
Pista Activa: 20
Salida: MAMUK1H

Datos LEAS
Metar: LEAS 121400Z VRB01KT CAVOK 15/04 Q1024 NOSIG ( IVAO NETWORK ERROR)
Pista Activa: 29
Llegada: AMAKA1C
App: ILS Z 29

IVAO ES Tour IFR-A 2013 Etapa 23

IVAO ES Tour IFR-A 2013 Etapa 23

Almería ( LEAM ) – Girona ( LEGE )

Datos generales del vuelo
 Fecha 13-12-2013  Avión  B737-800 winglets
 Ruta DOSEK UN860 VLC UM985 EBROX LATRO H110 MAMUK  Nivel de vuelo FL340
 Origen LEAM  Destino LEGE
 Velocidad M0.790  Distancia 432Nm
 Distancia real 385Nm ETE 01:10
 ETA 08:35Z  FOB 02:35
 Hora salida 08:40Z Hora llegada 10:00Z
 Pax 145 TOW 65772Kg
 MTOW  78471Kg Fuel 6814Kg
 Fuel utilizado 3755Kg ZFW 58961Kg
Peso carga 7047Kg Peso pasaje 10501Kg
V1 127Knots Vr 136Knots
 V2 146Knots  Vref 145Knots
 Velocidad vertical toma
288,46 ft/m  

 

Datos LEAM
Metar: LEAM 121400Z 08012KT 060V120 9999 FEW030 19/08 Q1026
Pista Activa: 07
Salida: DOSEK2B

Datos LEGE
Metar: LEGE 121400Z 20010KT 170V240 9999 FEW015 15/07 Q1027
Pista Activa: 20
Llegada: MAMUK1L
App: ILS Z 20

IVAO ES Tour IFR-A 2013 Etapa 22

IVAO ES Tour IFR-A 2013 Etapa 22

Santander ( LEXJ ) – Almería ( LEAM )

Datos generales del vuelo
 Fecha 11-12-2013  Avión  B737-800 winglets
 Ruta BLV UN867 DGO UN725 VASUM UN857 BAN UN10 CJN UM143 RISPO  Nivel de vuelo FL350
 Origen LEXJ  Destino LEAM
 Velocidad M0.790  Distancia 550Nm
 Distancia real 400Nm ETE 01:15
 ETA 18:50Z  FOB 02:35
 Hora salida 17:30Z Hora llegada 18:55Z
 Pax 145 TOW 68470Kg
 MTOW  78471Kg Fuel 7832Kg
 Fuel utilizado 4105Kg ZFW 60637Kg
Peso carga 7832Kg Peso pasaje 11358Kg
V1 132Knots Vr 142Knots
 V2 151Knots  Vref 148Knots
 Velocidad vertical toma
128,5 ft/m  

 

Datos LEXJ
Metar: LEXJ 111700Z 21012G24KT 170V250 CAVOK 17/M05 Q1023
Pista Activa: 29
Salida: BLV3R

Datos LEAM

Metar: LEAM 111830Z 04010KT 9999 FEW030 15/08 Q1030
Pista Activa: 25
Llegada: RISP1C
App: ILS 25 transición NIDON

IVAO ES Tour IFR-A 2013 Etapa 21

IVAO ES Tour IFR-A 2013 Etapa 21

Jerez ( LEJR ) – Santander ( LEXJ )

Datos generales del vuelo
 Fecha 11-12-2013  Avión  B737-800 winglets
 Ruta HIJ UZ230 TLD UN858 DGO UN867 BLV  Nivel de vuelo FL340
 Origen LEJR  Destino LEXJ
 Velocidad M0.785  Distancia 465Nm
 Distancia real 413Nm ETE 01:05
 ETA 08:25Z  FOB 02:35
 Hora salida 07:15Z Hora llegada 08:35Z
 Pax 145 TOW 65833Kg
 MTOW  78471Kg Fuel 6109Kg
 Fuel utilizado 3953Kg ZFW 59722Kg
Peso carga 7371Kg Peso pasaje 10938Kg
V1 128Knots Vr 138Knots
 V2 148Knots  Vref 145Knots
 Velocidad vertical toma
410,77 ft/m  

 

Datos LEJR

Metar: LEJR 110700Z 20005KT 140V240 CAVOK 07/05 Q1025
Pista Activa:  02
Salida: HIJ1V

Datos LEXJ

Metar: LEXJ 110800Z 20013G28KT 150V300 CAVOK 15/M05 Q1023
Pista Activa: 29
Llegada: BLV1E
App: ILSL 29 transición AMPUR